createdAt,value
2022-08-05T00:00:16.012Z,99670.16
2022-08-05T00:02:51.556Z,99670.00
2022-08-05T00:06:03.096Z,99679.03
2022-08-05T00:08:34.282Z,99702.25
2022-08-05T00:11:00.972Z,99737.44
2022-08-05T00:13:38.685Z,99765.00
2022-08-05T00:16:12.145Z,99791.44
2022-08-05T00:18:42.924Z,99808.84
2022-08-05T00:21:14.486Z,99801.97
2022-08-05T00:23:46.843Z,99795.63
2022-08-05T00:26:22.290Z,99798.31
2022-08-05T00:28:50.745Z,99783.50
2022-08-05T00:31:54.035Z,99784.22
2022-08-05T00:34:53.547Z,99800.44
2022-08-05T00:37:10.880Z,99817.00
2022-08-05T00:39:57.300Z,99817.66
2022-08-05T00:42:34.146Z,99826.81
2022-08-05T00:45:01.877Z,99834.13
2022-08-05T00:47:49.233Z,99839.47
2022-08-05T00:50:17.634Z,99820.91
2022-08-05T00:52:45.319Z,99813.75
2022-08-05T00:55:14.826Z,99814.81
2022-08-05T00:57:58.411Z,99829.91
2022-08-05T01:00:28.129Z,99810.69
2022-08-05T01:02:56.665Z,99804.81
2022-08-05T01:05:27.580Z,99795.75
2022-08-05T01:08:39.839Z,99783.13
2022-08-05T01:10:51.725Z,99781.53
2022-08-05T01:13:27.190Z,99773.56
2022-08-05T01:16:00.053Z,99731.72
2022-08-05T01:18:32.693Z,99694.25
2022-08-05T01:21:12.275Z,99694.97
2022-08-05T01:24:03.335Z,99696.19
2022-08-05T01:26:57.978Z,99702.34
2022-08-05T01:29:33.153Z,99721.38
2022-08-05T01:32:07.458Z,99720.28
2022-08-05T01:34:49.510Z,99719.06
2022-08-05T01:37:25.086Z,99708.97
2022-08-05T01:39:59.117Z,99685.44
2022-08-05T01:42:28.758Z,99674.50
2022-08-05T01:45:00.156Z,99702.78
2022-08-05T01:47:39.700Z,99677.03
2022-08-05T01:50:15.314Z,99702.19
2022-08-05T01:52:44.980Z,99694.75
2022-08-05T01:55:21.485Z,99687.13
2022-08-05T01:58:10.464Z,99667.47
2022-08-05T02:00:45.204Z,99680.69
2022-08-05T02:03:24.191Z,99683.31
2022-08-05T02:05:59.774Z,99690.25
2022-08-05T02:08:31.256Z,99676.59
2022-08-05T02:11:03.621Z,99672.34
2022-08-05T02:13:53.128Z,99657.50
2022-08-05T02:16:28.280Z,99632.47
2022-08-05T02:19:01.417Z,99622.81
2022-08-05T02:21:43.407Z,99623.00
2022-08-05T02:24:19.694Z,99621.50
2022-08-05T02:26:55.273Z,99605.19
2022-08-05T02:29:26.142Z,99626.31
2022-08-05T02:32:19.824Z,99644.69
2022-08-05T02:34:54.987Z,99660.56
2022-08-05T02:37:25.012Z,99679.84
2022-08-05T02:39:53.491Z,99713.72
2022-08-05T02:42:26.006Z,99751.81
2022-08-05T02:44:56.122Z,99768.78
2022-08-05T02:48:06.747Z,99753.03
2022-08-05T02:50:18.116Z,99752.84
2022-08-05T02:52:47.718Z,99770.88
2022-08-05T02:55:17.586Z,99780.63
2022-08-05T02:58:20.021Z,99768.41
2022-08-05T03:00:48.593Z,99766.53
2022-08-05T03:03:19.904Z,99769.78
2022-08-05T03:06:56.562Z,99759.41
2022-08-05T03:08:42.538Z,99779.72
2022-08-05T03:11:56.042Z,99792.00
2022-08-05T03:14:09.558Z,99782.78
2022-08-05T03:16:41.550Z,99777.22
2022-08-05T03:19:17.357Z,99764.78
2022-08-05T03:21:58.481Z,99776.50
2022-08-05T03:24:30.246Z,99778.06
2022-08-05T03:26:58.667Z,99791.63
2022-08-05T03:29:46.018Z,99781.50
2022-08-05T03:32:16.247Z,99770.81
2022-08-05T03:34:50.502Z,99742.00
2022-08-05T03:37:20.411Z,99751.13
2022-08-05T03:40:00.988Z,99738.91
2022-08-05T03:42:32.082Z,99760.75
2022-08-05T03:45:01.713Z,99774.34
2022-08-05T03:47:47.776Z,99802.69
2022-08-05T03:50:18.707Z,99841.59
2022-08-05T03:55:34.402Z,99859.25
2022-08-05T03:56:01.144Z,99900.41
2022-08-05T03:58:37.789Z,99910.34
2022-08-05T04:01:11.076Z,99898.06
2022-08-05T04:04:08.988Z,99909.88
2022-08-05T04:06:34.069Z,99905.69
2022-08-05T04:09:02.844Z,99903.38
2022-08-05T04:11:47.155Z,99905.34
2022-08-05T04:14:19.730Z,99897.06
2022-08-05T04:16:59.498Z,99885.25
2022-08-05T04:19:27.265Z,99873.53
2022-08-05T04:22:08.278Z,99846.19
2022-08-05T04:24:38.832Z,99844.88
2022-08-05T04:27:12.894Z,99847.34
2022-08-05T04:29:41.158Z,99839.09
2022-08-05T04:32:09.276Z,99836.66
2022-08-05T04:34:43.010Z,99839.69
2022-08-05T04:37:20.852Z,99833.38
2022-08-05T04:40:00.178Z,99833.69
2022-08-05T04:42:27.818Z,99821.34
2022-08-05T04:44:55.427Z,99823.28
2022-08-05T04:47:23.218Z,99835.31
2022-08-05T04:50:02.918Z,99835.59
2022-08-05T04:52:39.969Z,99822.53
2022-08-05T04:55:14.450Z,99822.00
2022-08-05T04:57:47.881Z,99838.34
2022-08-05T05:00:23.197Z,99847.06
2022-08-05T05:02:51.558Z,99860.69
2022-08-05T05:05:28.944Z,99863.28
2022-08-05T05:08:02.421Z,99858.19
2022-08-05T05:10:33.276Z,99855.13
2022-08-05T05:13:01.891Z,99860.59
2022-08-05T05:15:56.714Z,99881.94
2022-08-05T05:18:31.626Z,99890.63
2022-08-05T05:21:03.555Z,99902.81
2022-08-05T05:24:01.731Z,99906.91
2022-08-05T05:26:28.299Z,99919.69
2022-08-05T05:29:00.437Z,99919.47
2022-08-05T05:31:35.771Z,99920.03
2022-08-05T05:34:02.600Z,99897.03
2022-08-05T05:36:31.742Z,99888.31
2022-08-05T05:39:03.739Z,99906.69
2022-08-05T05:41:40.739Z,99919.16
2022-08-05T05:44:35.921Z,99917.59
2022-08-05T05:46:58.099Z,99904.16
2022-08-05T05:49:26.154Z,99882.63
2022-08-05T05:51:53.970Z,99896.38
2022-08-05T05:54:49.772Z,99891.34
2022-08-05T05:57:19.184Z,99898.56
2022-08-05T05:59:47.621Z,99897.59
2022-08-05T06:02:16.885Z,99910.03
2022-08-05T06:04:44.668Z,99927.59
2022-08-05T06:07:16.970Z,99934.19
2022-08-05T06:10:00.565Z,99919.81
2022-08-05T06:12:30.072Z,99896.59
2022-08-05T06:14:57.722Z,99880.38
2022-08-05T06:17:31.060Z,99885.88
2022-08-05T06:19:59.518Z,99870.75
2022-08-05T06:22:29.403Z,99888.13
2022-08-05T06:24:58.855Z,99883.72
2022-08-05T06:28:12.385Z,99863.03
2022-08-05T06:30:17.928Z,99846.16
2022-08-05T06:32:50.616Z,99863.56
2022-08-05T06:36:03.349Z,99865.63
2022-08-05T06:38:11.112Z,99848.72
2022-08-05T06:40:42.099Z,99838.06
2022-08-05T06:43:57.507Z,99848.06
2022-08-05T06:46:03.723Z,99848.53
2022-08-05T06:48:53.574Z,99847.38
2022-08-05T06:51:29.427Z,99856.91
2022-08-05T06:53:58.749Z,99860.72
2022-08-05T06:56:30.051Z,99830.63
2022-08-05T06:59:01.131Z,99832.94
2022-08-05T07:01:32.234Z,99813.81
2022-08-05T07:04:01.261Z,99799.56
2022-08-05T07:06:29.015Z,99830.16
2022-08-05T07:08:56.652Z,99852.50
2022-08-05T07:11:28.718Z,99866.00
2022-08-05T07:14:15.515Z,99904.13
2022-08-05T07:18:00.090Z,99942.31
2022-08-05T07:20:16.806Z,99948.03
2022-08-05T07:22:28.346Z,99958.31
2022-08-05T07:24:57.938Z,99966.97
2022-08-05T07:27:27.642Z,99968.16
2022-08-05T07:30:27.399Z,99985.63
2022-08-05T07:32:58.250Z,99990.81
2022-08-05T07:36:02.439Z,100001.53
2022-08-05T07:38:34.260Z,100001.03
2022-08-05T07:41:16.484Z,99997.25
2022-08-05T07:43:51.684Z,99980.44
2022-08-05T07:46:24.602Z,99974.88
2022-08-05T07:49:02.363Z,99965.81
2022-08-05T07:51:36.771Z,99976.13
2022-08-05T07:54:05.803Z,99976.09
2022-08-05T07:56:59.970Z,99977.03
2022-08-05T07:59:31.003Z,99977.34
2022-08-05T08:02:07.201Z,99983.38
2022-08-05T08:04:44.835Z,99982.38
2022-08-05T08:07:13.217Z,99981.88
2022-08-05T08:09:40.763Z,99998.38
2022-08-05T08:12:19.896Z,99998.38
2022-08-05T08:15:02.184Z,99991.53
2022-08-05T08:17:30.834Z,99987.16
2022-08-05T08:20:10.842Z,99983.13
2022-08-05T08:22:51.960Z,99983.75
2022-08-05T08:25:27.109Z,99983.22
2022-08-05T08:28:07.377Z,99977.59
2022-08-05T08:30:49.860Z,99975.31
2022-08-05T08:33:19.120Z,99970.25
2022-08-05T08:35:53.067Z,99967.81
2022-08-05T08:38:35.839Z,99958.94
2022-08-05T08:41:07.249Z,99970.66
2022-08-05T08:45:19.143Z,99975.66
2022-08-05T08:46:27.504Z,99970.03
2022-08-05T08:49:08.034Z,99961.78
2022-08-05T08:52:03.455Z,99968.22
2022-08-05T08:54:36.215Z,99975.84
2022-08-05T08:57:11.230Z,99978.63
2022-08-05T08:59:41.654Z,99979.81
2022-08-05T09:02:18.859Z,99972.31
2022-08-05T09:05:16.085Z,99970.63
2022-08-05T09:07:39.974Z,99968.22
2022-08-05T09:10:27.942Z,99968.03
2022-08-05T09:13:04.730Z,99972.94
2022-08-05T09:15:36.912Z,99967.69
2022-08-05T09:18:08.774Z,99962.44
2022-08-05T09:20:37.746Z,99950.19
2022-08-05T09:23:18.821Z,99944.34
2022-08-05T09:26:02.044Z,99951.69
2022-08-05T09:28:33.733Z,99958.19
2022-08-05T09:31:23.511Z,99953.72
2022-08-05T09:33:56.536Z,99939.22
2022-08-05T09:36:27.454Z,99933.84
2022-08-05T09:39:02.664Z,99920.75
2022-08-05T09:41:32.804Z,99916.44
2022-08-05T09:44:05.811Z,99937.22
2022-08-05T09:46:36.122Z,99948.34
2022-08-05T09:49:19.161Z,99949.16
2022-08-05T09:51:49.512Z,99946.50
2022-08-05T09:54:21.375Z,99943.69
2022-08-05T09:57:01.197Z,99960.72
2022-08-05T09:59:29.732Z,99959.59
2022-08-05T10:02:03.452Z,99968.47
2022-08-05T10:04:39.648Z,99946.31
2022-08-05T10:07:19.895Z,99956.53
2022-08-05T10:10:13.972Z,99944.97
2022-08-05T10:12:50.024Z,99956.25
2022-08-05T10:15:25.577Z,99957.88
2022-08-05T10:18:06.073Z,99945.31
2022-08-05T10:20:39.481Z,99941.19
2022-08-05T10:23:21.920Z,99943.94
2022-08-05T10:25:56.705Z,99948.63
2022-08-05T10:28:30.423Z,99962.03
2022-08-05T10:32:48.445Z,99959.94
2022-08-05T10:33:54.262Z,99960.81
2022-08-05T10:36:26.081Z,99949.38
2022-08-05T10:39:01.545Z,99948.69
2022-08-05T10:41:47.348Z,99956.00
2022-08-05T10:44:19.773Z,99957.81
2022-08-05T10:46:50.886Z,99960.69
2022-08-05T10:49:26.779Z,99965.06
2022-08-05T10:52:00.369Z,99959.91
2022-08-05T10:54:56.731Z,99964.97
2022-08-05T10:57:29.351Z,99959.41
2022-08-05T11:00:19.826Z,99974.28
2022-08-05T11:03:24.810Z,99982.63
2022-08-05T11:06:05.755Z,99989.75
2022-08-05T11:08:39.133Z,99983.00
2022-08-05T11:11:52.170Z,99974.91
2022-08-05T11:14:56.296Z,99977.38
2022-08-05T11:17:57.290Z,99985.34
2022-08-05T11:20:41.964Z,99996.09
2022-08-05T11:24:02.752Z,100003.91
2022-08-05T11:26:28.953Z,100006.59
2022-08-05T11:29:06.893Z,100009.66
2022-08-05T11:31:58.536Z,100013.47
2022-08-05T11:34:39.134Z,100013.88
2022-08-05T11:38:29.336Z,100018.28
2022-08-05T11:40:03.171Z,100016.22
2022-08-05T11:42:40.530Z,100025.31
2022-08-05T11:45:23.110Z,100026.50
2022-08-05T11:47:58.865Z,100019.69
2022-08-05T11:50:26.878Z,100004.88
2022-08-05T11:52:57.909Z,100005.00
2022-08-05T11:55:32.355Z,100011.72
2022-08-05T11:58:09.711Z,100012.63
2022-08-05T12:00:41.226Z,100009.19
2022-08-05T12:03:29.481Z,100006.63
2022-08-05T12:06:01.767Z,100009.28
2022-08-05T12:08:31.476Z,100010.56
2022-08-05T12:11:06.047Z,100009.78
2022-08-05T12:13:48.719Z,100015.75
2022-08-05T12:16:19.965Z,100017.22
2022-08-05T12:18:53.889Z,100021.44
2022-08-05T12:21:24.082Z,100015.91
2022-08-05T12:24:00.150Z,100019.53
2022-08-05T12:26:33.668Z,100034.31
2022-08-05T12:29:03.708Z,100038.72
2022-08-05T12:31:41.512Z,100033.19
2022-08-05T12:34:21.610Z,100033.50
2022-08-05T12:36:52.441Z,100038.81
2022-08-05T12:39:20.431Z,100037.44
2022-08-05T12:41:48.761Z,100042.13
2022-08-05T12:44:28.666Z,100043.97
2022-08-05T12:47:01.865Z,100050.59
2022-08-05T12:50:01.969Z,100062.28
2022-08-05T12:52:35.288Z,100053.19
2022-08-05T12:55:18.102Z,100059.66
2022-08-05T12:58:49.408Z,100076.56
2022-08-05T13:02:02.521Z,100078.84
2022-08-05T13:03:32.082Z,100083.56
2022-08-05T13:06:00.936Z,100081.84
2022-08-05T13:08:30.147Z,100077.72
2022-08-05T13:11:00.855Z,100086.03
2022-08-05T13:14:05.965Z,100090.88
2022-08-05T13:16:19.469Z,100084.88
2022-08-05T13:18:58.887Z,100083.16
2022-08-05T13:21:27.691Z,100086.06
2022-08-05T13:23:56.333Z,100090.84
2022-08-05T13:26:29.928Z,100094.47
2022-08-05T13:28:59.268Z,100104.19
2022-08-05T13:31:33.758Z,100102.19
2022-08-05T13:34:23.890Z,100100.88
2022-08-05T13:36:53.792Z,100106.00
2022-08-05T13:40:13.987Z,100121.16
2022-08-05T13:42:14.311Z,100125.28
2022-08-05T13:44:45.474Z,100125.22
2022-08-05T13:47:35.783Z,100130.63
2022-08-05T13:50:06.543Z,100144.34
2022-08-05T13:52:37.355Z,100132.00
2022-08-05T13:55:07.674Z,100131.63
2022-08-05T13:57:50.573Z,100126.66
2022-08-05T14:00:19.780Z,100117.25
2022-08-05T14:02:57.303Z,100102.06
2022-08-05T14:05:48.046Z,100097.75
2022-08-05T14:08:21.129Z,100086.38
2022-08-05T14:11:03.334Z,100115.09
2022-08-05T14:13:42.983Z,100137.34
2022-08-05T14:16:11.308Z,100137.44
2022-08-05T14:18:40.629Z,100136.25
2022-08-05T14:21:23.829Z,100152.19
2022-08-05T14:23:56.174Z,100157.41
2022-08-05T14:26:38.368Z,100154.44
2022-08-05T14:29:16.766Z,100166.03
2022-08-05T14:32:03.751Z,100161.63
2022-08-05T14:34:35.089Z,100166.44
2022-08-05T14:37:04.112Z,100146.78
2022-08-05T14:39:50.259Z,100148.59
2022-08-05T14:42:21.834Z,100151.03
2022-08-05T14:44:57.270Z,100150.59
2022-08-05T14:48:05.474Z,100144.47
2022-08-05T14:50:19.147Z,100148.91
2022-08-05T14:52:56.815Z,100144.59
2022-08-05T14:55:38.671Z,100138.66
2022-08-05T14:58:11.002Z,100140.63
2022-08-05T15:00:39.785Z,100136.75
2022-08-05T15:03:27.485Z,100157.13
2022-08-05T15:06:07.326Z,100159.53
2022-08-05T15:08:59.439Z,100164.44
2022-08-05T15:11:51.711Z,100172.03
2022-08-05T15:14:33.995Z,100171.63
2022-08-05T15:17:04.540Z,100173.34
2022-08-05T15:19:32.356Z,100178.19
2022-08-05T15:22:01.704Z,100182.22
2022-08-05T15:24:29.880Z,100184.25
2022-08-05T15:26:58.457Z,100196.47
2022-08-05T15:29:29.729Z,100202.09
2022-08-05T15:32:02.284Z,100204.03
2022-08-05T15:34:32.086Z,100202.00
2022-08-05T15:37:07.008Z,100209.34
2022-08-05T15:41:04.709Z,100209.63
2022-08-05T15:42:54.261Z,100221.47
2022-08-05T15:45:18.974Z,100216.56
2022-08-05T15:48:07.069Z,100221.97
2022-08-05T15:50:34.799Z,100230.56
2022-08-05T15:53:05.428Z,100238.63
2022-08-05T15:56:01.429Z,100249.38
2022-08-05T15:58:21.160Z,100241.84
2022-08-05T16:01:04.349Z,100248.25
2022-08-05T16:03:40.898Z,100240.06
2022-08-05T16:06:11.159Z,100247.72
2022-08-05T16:08:40.746Z,100252.38
2022-08-05T16:11:08.691Z,100249.34
2022-08-05T16:13:36.345Z,100248.59
2022-08-05T16:16:04.015Z,100247.78
2022-08-05T16:18:32.700Z,100257.09
2022-08-05T16:21:04.585Z,100258.19
2022-08-05T16:23:51.015Z,100264.78
2022-08-05T16:26:26.483Z,100258.50
2022-08-05T16:28:55.094Z,100258.22
2022-08-05T16:31:23.221Z,100259.84
2022-08-05T16:33:52.070Z,100262.06
2022-08-05T16:36:23.800Z,100265.06
2022-08-05T16:38:55.127Z,100266.75
2022-08-05T16:42:14.087Z,100282.06
2022-08-05T16:44:14.225Z,100273.25
2022-08-05T16:46:55.929Z,100284.22
2022-08-05T16:49:26.412Z,100281.25
2022-08-05T16:51:57.026Z,100278.75
2022-08-05T16:54:29.005Z,100284.78
2022-08-05T16:57:01.554Z,100288.34
2022-08-05T16:59:30.753Z,100283.69
2022-08-05T17:01:59.323Z,100289.72
2022-08-05T17:04:28.772Z,100292.16
2022-08-05T17:07:00.653Z,100292.44
2022-08-05T17:09:29.993Z,100288.63
2022-08-05T17:11:59.379Z,100280.94
2022-08-05T17:14:36.834Z,100282.84
2022-08-05T17:17:06.508Z,100298.75
2022-08-05T17:19:37.050Z,100289.44
2022-08-05T17:22:05.151Z,100293.81
2022-08-05T17:24:39.073Z,100293.00
2022-08-05T17:27:16.162Z,100303.66
2022-08-05T17:29:48.010Z,100296.28
2022-08-05T17:32:19.209Z,100303.13
2022-08-05T17:34:49.147Z,100299.28
2022-08-05T17:37:40.002Z,100313.53
2022-08-05T17:40:10.021Z,100312.69
2022-08-05T17:42:41.706Z,100311.88
2022-08-05T17:45:20.502Z,100325.00
2022-08-05T17:47:53.943Z,100318.69
2022-08-05T17:50:29.608Z,100321.16
2022-08-05T17:52:59.887Z,100320.91
2022-08-05T17:55:37.791Z,100330.47
2022-08-05T17:58:11.013Z,100329.63
2022-08-05T18:00:44.643Z,100328.81
2022-08-05T18:03:28.201Z,100341.03
2022-08-05T18:06:04.518Z,100348.09
2022-08-05T18:08:33.728Z,100343.97
2022-08-05T18:11:03.217Z,100349.16
2022-08-05T18:13:36.941Z,100345.59
2022-08-05T18:16:14.246Z,100357.03
2022-08-05T18:18:48.027Z,100360.59
2022-08-05T18:21:20.020Z,100367.97
2022-08-05T18:23:53.779Z,100376.94
2022-08-05T18:26:21.813Z,100376.44
2022-08-05T18:28:56.398Z,100379.66
2022-08-05T18:31:25.794Z,100380.44
2022-08-05T18:34:00.798Z,100381.47
2022-08-05T18:36:29.394Z,100384.41
2022-08-05T18:38:57.108Z,100384.63
2022-08-05T18:41:53.540Z,100384.38
2022-08-05T18:44:13.316Z,100393.06
2022-08-05T18:46:43.168Z,100394.94
2022-08-05T18:49:30.505Z,100391.72
2022-08-05T18:52:15.907Z,100398.19
2022-08-05T18:54:45.897Z,100408.78
2022-08-05T18:57:15.292Z,100413.34
2022-08-05T19:00:03.312Z,100423.06
2022-08-05T19:02:32.841Z,100418.69
2022-08-05T19:06:05.532Z,100423.06
2022-08-05T19:07:49.875Z,100418.06
2022-08-05T19:10:18.284Z,100424.31
2022-08-05T19:12:54.362Z,100437.63
2022-08-05T19:15:58.199Z,100437.31
2022-08-05T19:18:20.976Z,100443.31
2022-08-05T19:20:51.514Z,100454.22
2022-08-05T19:24:05.806Z,100458.22
2022-08-05T19:26:09.185Z,100460.28
2022-08-05T19:28:41.577Z,100463.75
2022-08-05T19:31:09.628Z,100474.56
2022-08-05T19:33:48.159Z,100478.81
2022-08-05T19:36:24.707Z,100491.88
2022-08-05T19:38:52.466Z,100494.44
2022-08-05T19:41:21.920Z,100503.59
2022-08-05T19:44:13.153Z,100512.09
2022-08-05T19:46:43.653Z,100509.88
2022-08-05T19:49:17.072Z,100524.69
2022-08-05T19:52:13.336Z,100522.53
2022-08-05T19:54:34.657Z,100530.84
2022-08-05T19:57:06.749Z,100524.28
2022-08-05T19:59:56.103Z,100522.13
2022-08-05T20:02:27.092Z,100533.22
2022-08-05T20:04:58.597Z,100522.13
2022-08-05T20:07:46.397Z,100527.75
2022-08-05T20:10:14.997Z,100532.69
2022-08-05T20:12:46.062Z,100533.78
2022-08-05T20:15:23.398Z,100547.66
2022-08-05T20:18:04.415Z,100545.31
2022-08-05T20:20:44.392Z,100553.22
2022-08-05T20:23:12.555Z,100554.19
2022-08-05T20:25:40.597Z,100559.28
2022-08-05T20:28:13.737Z,100560.50
2022-08-05T20:30:42.596Z,100566.47
2022-08-05T20:33:10.175Z,100571.22
2022-08-05T20:35:40.521Z,100575.78
2022-08-05T20:38:22.649Z,100574.81
2022-08-05T20:40:56.303Z,100582.06
2022-08-05T20:43:57.410Z,100577.69
2022-08-05T20:46:18.573Z,100580.91
2022-08-05T20:48:52.923Z,100594.03
2022-08-05T20:51:22.575Z,100595.63
2022-08-05T20:53:56.226Z,100606.00
2022-08-05T20:56:28.869Z,100598.97
2022-08-05T20:58:59.980Z,100608.50
2022-08-05T21:01:43.090Z,100605.03
2022-08-05T21:04:10.938Z,100595.03
2022-08-05T21:06:45.311Z,100598.25
2022-08-05T21:09:16.064Z,100607.34
2022-08-05T21:12:10.728Z,100606.00
2022-08-05T21:14:35.264Z,100600.25
2022-08-05T21:17:05.118Z,100611.16
2022-08-05T21:19:47.375Z,100611.75
2022-08-05T21:22:21.754Z,100617.84
2022-08-05T21:24:52.789Z,100611.97
2022-08-05T21:27:25.209Z,100617.03
2022-08-05T21:29:55.804Z,100627.44
2022-08-05T21:32:26.757Z,100623.81
2022-08-05T21:35:06.850Z,100625.91
2022-08-05T21:37:47.349Z,100620.47
2022-08-05T21:40:23.259Z,100623.00
2022-08-05T21:42:52.055Z,100620.78
2022-08-05T21:45:24.793Z,100618.25
2022-08-05T21:47:56.803Z,100616.56
2022-08-05T21:50:25.960Z,100619.28
2022-08-05T21:52:53.651Z,100617.34
2022-08-05T21:55:42.849Z,100617.94
2022-08-05T21:58:16.547Z,100623.66
2022-08-05T22:00:51.298Z,100621.72
2022-08-05T22:03:20.647Z,100632.63
2022-08-05T22:06:08.220Z,100647.91
2022-08-05T22:08:36.801Z,100649.69
2022-08-05T22:11:15.390Z,100662.09
2022-08-05T22:14:19.894Z,100661.31
2022-08-05T22:20:14.968Z,100665.19
2022-08-05T22:23:01.770Z,100666.03
2022-08-05T22:26:10.481Z,100663.41
2022-08-05T22:28:40.643Z,100667.22
2022-08-05T22:31:08.252Z,100675.41
2022-08-05T22:33:56.668Z,100675.16
2022-08-05T22:36:26.064Z,100680.00
2022-08-05T22:38:53.867Z,100683.78
2022-08-05T22:42:04.946Z,100682.88
2022-08-05T22:44:12.028Z,100679.91
2022-08-05T22:46:40.744Z,100681.47
2022-08-05T22:49:23.317Z,100682.50
2022-08-05T22:52:07.133Z,100692.69
2022-08-05T22:54:40.519Z,100695.50
2022-08-05T22:57:16.550Z,100695.50
2022-08-05T22:59:53.799Z,100707.09
2022-08-05T23:02:29.583Z,100703.53
2022-08-05T23:04:58.101Z,100709.56
2022-08-05T23:07:30.419Z,100711.59
2022-08-05T23:10:01.957Z,100714.16
2022-08-05T23:12:32.546Z,100714.00
2022-08-05T23:15:03.095Z,100714.44
2022-08-05T23:17:32.743Z,100717.00
2022-08-05T23:20:16.616Z,100716.41
2022-08-05T23:22:47.486Z,100717.94
2022-08-05T23:25:17.654Z,100714.25
2022-08-05T23:28:07.032Z,100726.88
2022-08-05T23:30:39.690Z,100737.34
2022-08-05T23:33:07.504Z,100740.22
2022-08-05T23:35:50.994Z,100735.84
2022-08-05T23:38:19.058Z,100743.22
2022-08-05T23:40:49.714Z,100745.91
2022-08-05T23:43:24.811Z,100748.34
2022-08-05T23:46:19.839Z,100747.13
2022-08-05T23:49:00.389Z,100755.81
2022-08-05T23:51:52.638Z,100741.50
2022-08-05T23:54:25.829Z,100750.78
2022-08-05T23:56:55.563Z,100744.59
2022-08-05T23:59:27.815Z,100753.88
